sensor_id;sensor_type;location;lat;lon;timestamp;P1;durP1;ratioP1;P2;durP2;ratioP2
37641;SDS011;23486;51.956;5.888;2023-03-14T00:00:35;3.58;;;0.80;;
37641;SDS011;23486;51.956;5.888;2023-03-14T00:03:01;7.55;;;0.60;;
37641;SDS011;23486;51.956;5.888;2023-03-14T00:05:27;6.47;;;0.90;;
37641;SDS011;23486;51.956;5.888;2023-03-14T00:07:52;7.00;;;0.98;;
37641;SDS011;23486;51.956;5.888;2023-03-14T00:10:18;4.75;;;0.90;;
37641;SDS011;23486;51.956;5.888;2023-03-14T00:12:44;4.88;;;0.63;;
37641;SDS011;23486;51.956;5.888;2023-03-14T00:15:10;5.30;;;1.00;;
37641;SDS011;23486;51.956;5.888;2023-03-14T00:17:36;10.23;;;1.15;;
37641;SDS011;23486;51.956;5.888;2023-03-14T00:20:03;6.43;;;1.05;;
37641;SDS011;23486;51.956;5.888;2023-03-14T00:22:36;8.27;;;0.75;;
37641;SDS011;23486;51.956;5.888;2023-03-14T00:25:02;5.45;;;0.80;;
37641;SDS011;23486;51.956;5.888;2023-03-14T00:27:29;6.63;;;0.80;;
37641;SDS011;23486;51.956;5.888;2023-03-14T00:29:55;4.65;;;0.50;;
37641;SDS011;23486;51.956;5.888;2023-03-14T00:32:20;7.72;;;0.60;;
37641;SDS011;23486;51.956;5.888;2023-03-14T00:34:46;3.58;;;0.70;;
37641;SDS011;23486;51.956;5.888;2023-03-14T00:37:11;4.85;;;0.50;;
37641;SDS011;23486;51.956;5.888;2023-03-14T00:39:38;11.68;;;1.30;;
37641;SDS011;23486;51.956;5.888;2023-03-14T00:42:04;4.32;;;0.45;;
37641;SDS011;23486;51.956;5.888;2023-03-14T00:44:33;4.63;;;0.50;;
37641;SDS011;23486;51.956;5.888;2023-03-14T00:46:58;3.17;;;0.40;;
37641;SDS011;23486;51.956;5.888;2023-03-14T00:49:24;6.55;;;0.40;;
37641;SDS011;23486;51.956;5.888;2023-03-14T00:51:50;3.95;;;0.50;;
37641;SDS011;23486;51.956;5.888;2023-03-14T00:54:16;4.03;;;0.60;;
37641;SDS011;23486;51.956;5.888;2023-03-14T00:56:46;3.92;;;0.40;;
37641;SDS011;23486;51.956;5.888;2023-03-14T00:59:11;5.57;;;0.93;;
37641;SDS011;23486;51.956;5.888;2023-03-14T01:01:38;4.05;;;0.70;;
37641;SDS011;23486;51.956;5.888;2023-03-14T01:04:04;2.38;;;0.50;;
37641;SDS011;23486;51.956;5.888;2023-03-14T01:06:29;5.20;;;0.60;;
37641;SDS011;23486;51.956;5.888;2023-03-14T01:08:55;8.60;;;0.63;;
37641;SDS011;23486;51.956;5.888;2023-03-14T01:11:23;4.65;;;0.40;;
37641;SDS011;23486;51.956;5.888;2023-03-14T01:13:51;3.80;;;0.40;;
37641;SDS011;23486;51.956;5.888;2023-03-14T01:16:17;4.78;;;0.50;;
37641;SDS011;23486;51.956;5.888;2023-03-14T01:18:45;7.35;;;1.20;;
37641;SDS011;23486;51.956;5.888;2023-03-14T01:21:18;6.57;;;0.60;;
37641;SDS011;23486;51.956;5.888;2023-03-14T01:23:46;6.55;;;0.50;;
37641;SDS011;23486;51.956;5.888;2023-03-14T01:26:13;5.43;;;0.47;;
37641;SDS011;23486;51.956;5.888;2023-03-14T01:28:40;9.90;;;0.60;;
37641;SDS011;23486;51.956;5.888;2023-03-14T01:31:07;6.28;;;1.13;;
37641;SDS011;23486;51.956;5.888;2023-03-14T01:33:34;2.80;;;0.32;;
37641;SDS011;23486;51.956;5.888;2023-03-14T01:36:00;3.15;;;0.60;;
37641;SDS011;23486;51.956;5.888;2023-03-14T01:38:29;5.00;;;0.85;;
37641;SDS011;23486;51.956;5.888;2023-03-14T01:40:55;5.28;;;0.60;;
37641;SDS011;23486;51.956;5.888;2023-03-14T01:43:21;7.95;;;0.73;;
37641;SDS011;23486;51.956;5.888;2023-03-14T01:46:32;6.65;;;0.57;;
37641;SDS011;23486;51.956;5.888;2023-03-14T01:48:46;3.78;;;0.52;;
37641;SDS011;23486;51.956;5.888;2023-03-14T01:51:13;4.70;;;0.40;;
37641;SDS011;23486;51.956;5.888;2023-03-14T01:53:44;7.88;;;0.60;;
37641;SDS011;23486;51.956;5.888;2023-03-14T01:56:11;8.63;;;0.70;;
37641;SDS011;23486;51.956;5.888;2023-03-14T01:58:39;8.60;;;0.52;;
37641;SDS011;23486;51.956;5.888;2023-03-14T02:01:08;6.57;;;0.43;;
37641;SDS011;23486;51.956;5.888;2023-03-14T02:03:36;5.63;;;0.40;;
37641;SDS011;23486;51.956;5.888;2023-03-14T02:06:09;10.85;;;0.50;;
37641;SDS011;23486;51.956;5.888;2023-03-14T02:08:36;7.07;;;0.50;;
37641;SDS011;23486;51.956;5.888;2023-03-14T02:11:05;6.32;;;0.68;;
37641;SDS011;23486;51.956;5.888;2023-03-14T02:13:32;7.93;;;0.40;;
37641;SDS011;23486;51.956;5.888;2023-03-14T02:16:00;10.82;;;0.60;;
37641;SDS011;23486;51.956;5.888;2023-03-14T02:18:26;8.52;;;0.50;;
37641;SDS011;23486;51.956;5.888;2023-03-14T02:26:03;8.38;;;0.40;;
37641;SDS011;23486;51.956;5.888;2023-03-14T02:28:33;8.00;;;0.40;;
37641;SDS011;23486;51.956;5.888;2023-03-14T02:30:58;7.40;;;0.60;;
37641;SDS011;23486;51.956;5.888;2023-03-14T02:33:24;5.32;;;0.60;;
37641;SDS011;23486;51.956;5.888;2023-03-14T02:35:54;6.40;;;0.55;;
37641;SDS011;23486;51.956;5.888;2023-03-14T02:38:28;8.73;;;0.77;;
37641;SDS011;23486;51.956;5.888;2023-03-14T02:41:06;8.35;;;0.40;;
37641;SDS011;23486;51.956;5.888;2023-03-14T02:43:32;7.13;;;0.68;;
37641;SDS011;23486;51.956;5.888;2023-03-14T02:45:58;9.88;;;0.50;;
37641;SDS011;23486;51.956;5.888;2023-03-14T02:48:26;5.22;;;0.40;;
37641;SDS011;23486;51.956;5.888;2023-03-14T02:50:55;7.10;;;0.70;;
37641;SDS011;23486;51.956;5.888;2023-03-14T02:53:29;6.63;;;0.40;;
37641;SDS011;23486;51.956;5.888;2023-03-14T02:55:56;1.92;;;0.40;;
37641;SDS011;23486;51.956;5.888;2023-03-14T02:58:22;5.40;;;0.45;;
37641;SDS011;23486;51.956;5.888;2023-03-14T03:00:48;4.88;;;0.52;;
37641;SDS011;23486;51.956;5.888;2023-03-14T03:03:14;6.72;;;0.75;;
37641;SDS011;23486;51.956;5.888;2023-03-14T03:05:39;8.60;;;0.68;;
37641;SDS011;23486;51.956;5.888;2023-03-14T03:08:05;8.57;;;0.70;;
37641;SDS011;23486;51.956;5.888;2023-03-14T03:10:31;7.13;;;0.45;;
37641;SDS011;23486;51.956;5.888;2023-03-14T03:12:57;6.85;;;0.90;;
37641;SDS011;23486;51.956;5.888;2023-03-14T03:15:23;3.88;;;0.52;;
37641;SDS011;23486;51.956;5.888;2023-03-14T03:17:49;7.78;;;0.50;;
37641;SDS011;23486;51.956;5.888;2023-03-14T03:20:14;6.05;;;0.50;;
37641;SDS011;23486;51.956;5.888;2023-03-14T03:22:40;8.88;;;0.52;;
37641;SDS011;23486;51.956;5.888;2023-03-14T03:25:06;4.22;;;0.50;;
37641;SDS011;23486;51.956;5.888;2023-03-14T03:27:33;3.30;;;0.40;;
37641;SDS011;23486;51.956;5.888;2023-03-14T03:30:00;7.38;;;0.55;;
37641;SDS011;23486;51.956;5.888;2023-03-14T03:32:27;8.45;;;0.68;;
37641;SDS011;23486;51.956;5.888;2023-03-14T03:34:52;9.60;;;0.70;;
37641;SDS011;23486;51.956;5.888;2023-03-14T03:37:18;11.68;;;0.77;;
37641;SDS011;23486;51.956;5.888;2023-03-14T03:39:44;3.75;;;0.55;;
37641;SDS011;23486;51.956;5.888;2023-03-14T03:42:09;6.47;;;0.60;;
37641;SDS011;23486;51.956;5.888;2023-03-14T03:44:35;9.80;;;0.90;;
37641;SDS011;23486;51.956;5.888;2023-03-14T03:47:01;9.55;;;0.75;;
37641;SDS011;23486;51.956;5.888;2023-03-14T03:49:30;8.30;;;0.70;;
37641;SDS011;23486;51.956;5.888;2023-03-14T03:51:56;9.88;;;0.60;;
37641;SDS011;23486;51.956;5.888;2023-03-14T03:54:22;11.60;;;0.90;;
37641;SDS011;23486;51.956;5.888;2023-03-14T03:56:48;10.70;;;0.85;;
37641;SDS011;23486;51.956;5.888;2023-03-14T03:59:14;9.30;;;1.23;;
37641;SDS011;23486;51.956;5.888;2023-03-14T04:01:39;4.75;;;0.80;;
37641;SDS011;23486;51.956;5.888;2023-03-14T04:04:05;9.32;;;0.85;;
37641;SDS011;23486;51.956;5.888;2023-03-14T04:06:32;9.32;;;0.60;;
37641;SDS011;23486;51.956;5.888;2023-03-14T04:08:58;5.63;;;0.50;;
37641;SDS011;23486;51.956;5.888;2023-03-14T04:11:23;11.50;;;0.80;;
37641;SDS011;23486;51.956;5.888;2023-03-14T04:13:49;7.22;;;0.75;;
37641;SDS011;23486;51.956;5.888;2023-03-14T04:16:16;9.98;;;0.90;;
37641;SDS011;23486;51.956;5.888;2023-03-14T04:18:44;7.43;;;0.90;;
37641;SDS011;23486;51.956;5.888;2023-03-14T04:21:10;11.95;;;0.85;;
37641;SDS011;23486;51.956;5.888;2023-03-14T04:23:35;9.93;;;0.90;;
37641;SDS011;23486;51.956;5.888;2023-03-14T04:26:01;10.38;;;1.05;;
37641;SDS011;23486;51.956;5.888;2023-03-14T04:28:27;8.73;;;0.98;;
37641;SDS011;23486;51.956;5.888;2023-03-14T04:30:52;12.63;;;0.82;;
37641;SDS011;23486;51.956;5.888;2023-03-14T04:33:18;4.35;;;0.60;;
37641;SDS011;23486;51.956;5.888;2023-03-14T04:35:44;9.25;;;1.20;;
37641;SDS011;23486;51.956;5.888;2023-03-14T04:38:10;11.48;;;1.10;;
37641;SDS011;23486;51.956;5.888;2023-03-14T04:40:36;9.60;;;1.10;;
37641;SDS011;23486;51.956;5.888;2023-03-14T04:43:03;8.70;;;0.47;;
37641;SDS011;23486;51.956;5.888;2023-03-14T04:45:28;9.00;;;1.05;;
37641;SDS011;23486;51.956;5.888;2023-03-14T04:47:54;10.65;;;0.70;;
37641;SDS011;23486;51.956;5.888;2023-03-14T04:50:19;8.00;;;0.40;;
37641;SDS011;23486;51.956;5.888;2023-03-14T04:52:45;6.65;;;0.50;;
37641;SDS011;23486;51.956;5.888;2023-03-14T04:55:11;10.13;;;0.70;;
37641;SDS011;23486;51.956;5.888;2023-03-14T04:57:36;8.00;;;1.15;;
37641;SDS011;23486;51.956;5.888;2023-03-14T05:00:02;9.90;;;0.75;;
37641;SDS011;23486;51.956;5.888;2023-03-14T05:02:34;6.82;;;0.50;;
37641;SDS011;23486;51.956;5.888;2023-03-14T05:05:00;6.90;;;0.70;;
37641;SDS011;23486;51.956;5.888;2023-03-14T05:07:26;8.07;;;0.60;;
37641;SDS011;23486;51.956;5.888;2023-03-14T05:09:52;5.50;;;0.50;;
37641;SDS011;23486;51.956;5.888;2023-03-14T05:12:18;5.65;;;0.60;;
37641;SDS011;23486;51.956;5.888;2023-03-14T05:14:45;6.30;;;0.60;;
37641;SDS011;23486;51.956;5.888;2023-03-14T05:17:10;6.88;;;0.35;;
37641;SDS011;23486;51.956;5.888;2023-03-14T05:19:38;4.57;;;0.50;;
37641;SDS011;23486;51.956;5.888;2023-03-14T05:22:03;5.80;;;0.47;;
37641;SDS011;23486;51.956;5.888;2023-03-14T05:24:29;9.50;;;0.50;;
37641;SDS011;23486;51.956;5.888;2023-03-14T05:26:55;3.05;;;0.30;;
37641;SDS011;23486;51.956;5.888;2023-03-14T05:29:20;5.35;;;0.30;;
37641;SDS011;23486;51.956;5.888;2023-03-14T05:31:49;3.80;;;0.30;;
37641;SDS011;23486;51.956;5.888;2023-03-14T05:34:14;3.92;;;0.30;;
37641;SDS011;23486;51.956;5.888;2023-03-14T05:36:40;4.57;;;0.30;;
37641;SDS011;23486;51.956;5.888;2023-03-14T05:39:06;3.72;;;0.40;;
37641;SDS011;23486;51.956;5.888;2023-03-14T05:41:31;4.47;;;0.30;;
37641;SDS011;23486;51.956;5.888;2023-03-14T05:43:57;5.15;;;0.43;;
37641;SDS011;23486;51.956;5.888;2023-03-14T05:46:22;2.45;;;0.40;;
37641;SDS011;23486;51.956;5.888;2023-03-14T05:48:48;7.10;;;0.60;;
37641;SDS011;23486;51.956;5.888;2023-03-14T05:51:13;3.42;;;0.30;;
37641;SDS011;23486;51.956;5.888;2023-03-14T05:53:39;3.80;;;0.50;;
37641;SDS011;23486;51.956;5.888;2023-03-14T05:56:05;3.22;;;0.40;;
37641;SDS011;23486;51.956;5.888;2023-03-14T05:58:31;4.95;;;0.60;;
37641;SDS011;23486;51.956;5.888;2023-03-14T06:00:56;4.20;;;0.50;;
37641;SDS011;23486;51.956;5.888;2023-03-14T06:03:22;6.03;;;0.40;;
37641;SDS011;23486;51.956;5.888;2023-03-14T06:05:49;3.72;;;0.50;;
37641;SDS011;23486;51.956;5.888;2023-03-14T06:08:16;3.97;;;0.40;;
37641;SDS011;23486;51.956;5.888;2023-03-14T06:10:41;5.80;;;0.45;;
37641;SDS011;23486;51.956;5.888;2023-03-14T06:13:07;2.95;;;0.40;;
37641;SDS011;23486;51.956;5.888;2023-03-14T06:15:32;2.88;;;0.40;;
37641;SDS011;23486;51.956;5.888;2023-03-14T06:17:58;4.88;;;0.60;;
37641;SDS011;23486;51.956;5.888;2023-03-14T06:20:23;3.42;;;0.43;;
37641;SDS011;23486;51.956;5.888;2023-03-14T06:22:49;6.38;;;0.60;;
37641;SDS011;23486;51.956;5.888;2023-03-14T06:25:18;4.10;;;0.60;;
37641;SDS011;23486;51.956;5.888;2023-03-14T06:27:43;4.32;;;0.50;;
37641;SDS011;23486;51.956;5.888;2023-03-14T06:30:09;4.65;;;0.57;;
37641;SDS011;23486;51.956;5.888;2023-03-14T06:32:37;3.70;;;0.60;;
37641;SDS011;23486;51.956;5.888;2023-03-14T06:35:03;3.95;;;0.80;;
37641;SDS011;23486;51.956;5.888;2023-03-14T06:37:29;3.92;;;0.73;;
37641;SDS011;23486;51.956;5.888;2023-03-14T06:39:55;2.38;;;0.60;;
37641;SDS011;23486;51.956;5.888;2023-03-14T06:42:21;6.43;;;0.95;;
37641;SDS011;23486;51.956;5.888;2023-03-14T06:44:47;6.45;;;0.70;;
37641;SDS011;23486;51.956;5.888;2023-03-14T06:47:13;7.13;;;1.55;;
37641;SDS011;23486;51.956;5.888;2023-03-14T06:49:38;6.95;;;1.40;;
37641;SDS011;23486;51.956;5.888;2023-03-14T06:52:04;8.27;;;1.02;;
37641;SDS011;23486;51.956;5.888;2023-03-14T06:54:30;5.25;;;1.02;;
37641;SDS011;23486;51.956;5.888;2023-03-14T06:56:55;4.30;;;1.13;;
37641;SDS011;23486;51.956;5.888;2023-03-14T06:59:21;3.50;;;0.82;;
37641;SDS011;23486;51.956;5.888;2023-03-14T07:01:46;5.30;;;0.90;;
37641;SDS011;23486;51.956;5.888;2023-03-14T07:04:13;5.85;;;1.17;;
37641;SDS011;23486;51.956;5.888;2023-03-14T07:06:39;5.03;;;1.00;;
37641;SDS011;23486;51.956;5.888;2023-03-14T07:09:09;3.78;;;1.10;;
37641;SDS011;23486;51.956;5.888;2023-03-14T07:11:38;6.70;;;1.67;;
37641;SDS011;23486;51.956;5.888;2023-03-14T07:14:04;5.63;;;1.55;;
37641;SDS011;23486;51.956;5.888;2023-03-14T07:16:29;7.70;;;2.30;;
37641;SDS011;23486;51.956;5.888;2023-03-14T07:18:57;8.98;;;2.42;;
37641;SDS011;23486;51.956;5.888;2023-03-14T07:21:24;3.92;;;1.77;;
37641;SDS011;23486;51.956;5.888;2023-03-14T07:23:49;5.15;;;1.60;;
37641;SDS011;23486;51.956;5.888;2023-03-14T07:26:17;7.07;;;2.10;;
37641;SDS011;23486;51.956;5.888;2023-03-14T07:28:43;5.40;;;2.00;;
37641;SDS011;23486;51.956;5.888;2023-03-14T07:31:09;5.13;;;1.27;;
37641;SDS011;23486;51.956;5.888;2023-03-14T07:33:34;4.82;;;1.35;;
37641;SDS011;23486;51.956;5.888;2023-03-14T07:36:00;6.53;;;1.02;;
37641;SDS011;23486;51.956;5.888;2023-03-14T07:38:26;4.78;;;0.90;;
37641;SDS011;23486;51.956;5.888;2023-03-14T07:40:57;4.93;;;1.10;;
37641;SDS011;23486;51.956;5.888;2023-03-14T07:43:24;6.05;;;0.88;;
37641;SDS011;23486;51.956;5.888;2023-03-14T07:45:49;4.25;;;1.17;;
37641;SDS011;23486;51.956;5.888;2023-03-14T07:48:15;5.07;;;0.82;;
37641;SDS011;23486;51.956;5.888;2023-03-14T07:50:41;6.43;;;0.60;;
37641;SDS011;23486;51.956;5.888;2023-03-14T07:53:06;2.78;;;0.40;;
37641;SDS011;23486;51.956;5.888;2023-03-14T07:55:32;6.95;;;0.50;;
37641;SDS011;23486;51.956;5.888;2023-03-14T07:57:57;7.97;;;0.63;;
37641;SDS011;23486;51.956;5.888;2023-03-14T08:00:23;3.85;;;0.50;;
37641;SDS011;23486;51.956;5.888;2023-03-14T08:02:48;2.75;;;0.50;;
37641;SDS011;23486;51.956;5.888;2023-03-14T08:05:14;2.20;;;0.50;;
37641;SDS011;23486;51.956;5.888;2023-03-14T08:07:41;3.47;;;0.40;;
37641;SDS011;23486;51.956;5.888;2023-03-14T08:10:10;4.03;;;0.60;;
37641;SDS011;23486;51.956;5.888;2023-03-14T08:12:35;3.00;;;0.50;;
37641;SDS011;23486;51.956;5.888;2023-03-14T08:15:01;1.65;;;0.30;;
37641;SDS011;23486;51.956;5.888;2023-03-14T08:17:27;2.22;;;0.40;;
37641;SDS011;23486;51.956;5.888;2023-03-14T08:19:53;3.40;;;0.40;;
37641;SDS011;23486;51.956;5.888;2023-03-14T08:22:18;3.80;;;0.40;;
37641;SDS011;23486;51.956;5.888;2023-03-14T08:24:44;3.65;;;0.50;;
37641;SDS011;23486;51.956;5.888;2023-03-14T08:27:09;3.75;;;0.52;;
37641;SDS011;23486;51.956;5.888;2023-03-14T08:29:35;4.22;;;0.55;;
37641;SDS011;23486;51.956;5.888;2023-03-14T08:32:00;4.20;;;0.50;;
37641;SDS011;23486;51.956;5.888;2023-03-14T08:34:26;4.15;;;0.43;;
37641;SDS011;23486;51.956;5.888;2023-03-14T08:36:51;3.83;;;0.82;;
37641;SDS011;23486;51.956;5.888;2023-03-14T08:39:17;3.25;;;0.50;;
37641;SDS011;23486;51.956;5.888;2023-03-14T08:41:43;2.83;;;0.40;;
37641;SDS011;23486;51.956;5.888;2023-03-14T08:44:09;3.35;;;0.43;;
37641;SDS011;23486;51.956;5.888;2023-03-14T08:46:38;4.97;;;0.68;;
37641;SDS011;23486;51.956;5.888;2023-03-14T08:49:04;5.22;;;0.30;;
37641;SDS011;23486;51.956;5.888;2023-03-14T08:51:29;3.58;;;0.30;;
37641;SDS011;23486;51.956;5.888;2023-03-14T08:53:55;4.10;;;1.38;;
37641;SDS011;23486;51.956;5.888;2023-03-14T08:56:21;4.88;;;0.40;;
37641;SDS011;23486;51.956;5.888;2023-03-14T08:58:46;3.75;;;0.52;;
37641;SDS011;23486;51.956;5.888;2023-03-14T09:01:12;3.95;;;0.50;;
37641;SDS011;23486;51.956;5.888;2023-03-14T09:03:37;4.88;;;0.60;;
37641;SDS011;23486;51.956;5.888;2023-03-14T09:06:06;8.52;;;0.43;;
37641;SDS011;23486;51.956;5.888;2023-03-14T09:08:34;6.63;;;0.35;;
37641;SDS011;23486;51.956;5.888;2023-03-14T09:11:00;7.05;;;0.57;;
37641;SDS011;23486;51.956;5.888;2023-03-14T09:13:26;10.05;;;0.50;;
37641;SDS011;23486;51.956;5.888;2023-03-14T09:15:52;5.47;;;0.45;;
37641;SDS011;23486;51.956;5.888;2023-03-14T09:18:18;8.02;;;0.30;;
37641;SDS011;23486;51.956;5.888;2023-03-14T09:20:44;6.20;;;0.30;;
37641;SDS011;23486;51.956;5.888;2023-03-14T09:23:09;5.47;;;0.30;;
37641;SDS011;23486;51.956;5.888;2023-03-14T09:25:35;5.45;;;0.32;;
37641;SDS011;23486;51.956;5.888;2023-03-14T09:28:01;3.67;;;0.60;;
37641;SDS011;23486;51.956;5.888;2023-03-14T09:30:27;6.30;;;0.60;;
37641;SDS011;23486;51.956;5.888;2023-03-14T09:32:52;4.63;;;0.20;;
37641;SDS011;23486;51.956;5.888;2023-03-14T09:35:18;4.28;;;0.20;;
37641;SDS011;23486;51.956;5.888;2023-03-14T09:37:43;1.45;;;0.10;;
37641;SDS011;23486;51.956;5.888;2023-03-14T09:40:13;5.10;;;0.28;;
37641;SDS011;23486;51.956;5.888;2023-03-14T09:42:40;2.25;;;0.20;;
37641;SDS011;23486;51.956;5.888;2023-03-14T09:45:10;2.60;;;0.10;;
37641;SDS011;23486;51.956;5.888;2023-03-14T09:47:58;3.10;;;0.10;;
37641;SDS011;23486;51.956;5.888;2023-03-14T09:50:24;2.13;;;0.10;;
37641;SDS011;23486;51.956;5.888;2023-03-14T09:52:52;3.83;;;0.40;;
37641;SDS011;23486;51.956;5.888;2023-03-14T09:55:23;3.85;;;0.50;;
37641;SDS011;23486;51.956;5.888;2023-03-14T09:57:50;2.67;;;0.25;;
37641;SDS011;23486;51.956;5.888;2023-03-14T10:00:22;3.80;;;0.20;;
37641;SDS011;23486;51.956;5.888;2023-03-14T10:02:52;3.97;;;0.30;;
37641;SDS011;23486;51.956;5.888;2023-03-14T10:05:32;3.45;;;0.20;;
37641;SDS011;23486;51.956;5.888;2023-03-14T10:07:58;4.00;;;0.20;;
37641;SDS011;23486;51.956;5.888;2023-03-14T10:10:24;9.45;;;0.50;;
37641;SDS011;23486;51.956;5.888;2023-03-14T10:12:55;10.93;;;0.40;;
37641;SDS011;23486;51.956;5.888;2023-03-14T10:15:24;2.90;;;0.43;;
37641;SDS011;23486;51.956;5.888;2023-03-14T10:17:51;6.47;;;0.40;;
37641;SDS011;23486;51.956;5.888;2023-03-14T10:23:16;4.25;;;0.43;;
37641;SDS011;23486;51.956;5.888;2023-03-14T10:28:50;18.58;;;0.68;;
37641;SDS011;23486;51.956;5.888;2023-03-14T10:31:17;11.40;;;0.60;;
37641;SDS011;23486;51.956;5.888;2023-03-14T10:33:57;9.68;;;0.70;;
37641;SDS011;23486;51.956;5.888;2023-03-14T10:36:29;21.48;;;1.15;;
37641;SDS011;23486;51.956;5.888;2023-03-14T10:38:57;17.55;;;1.38;;
37641;SDS011;23486;51.956;5.888;2023-03-14T10:41:48;12.85;;;1.30;;
37641;SDS011;23486;51.956;5.888;2023-03-14T10:44:15;17.00;;;1.20;;
37641;SDS011;23486;51.956;5.888;2023-03-14T10:46:44;14.43;;;1.08;;
37641;SDS011;23486;51.956;5.888;2023-03-14T10:49:16;10.77;;;0.75;;
37641;SDS011;23486;51.956;5.888;2023-03-14T10:51:53;14.25;;;1.15;;
37641;SDS011;23486;51.956;5.888;2023-03-14T10:54:20;10.55;;;0.70;;
37641;SDS011;23486;51.956;5.888;2023-03-14T10:56:55;15.48;;;1.40;;
37641;SDS011;23486;51.956;5.888;2023-03-14T10:59:22;15.70;;;0.85;;
37641;SDS011;23486;51.956;5.888;2023-03-14T11:05:06;15.13;;;1.02;;
37641;SDS011;23486;51.956;5.888;2023-03-14T11:07:41;13.25;;;1.13;;
37641;SDS011;23486;51.956;5.888;2023-03-14T11:10:11;16.42;;;1.00;;
37641;SDS011;23486;51.956;5.888;2023-03-14T11:12:41;18.10;;;1.02;;
37641;SDS011;23486;51.956;5.888;2023-03-14T11:20:42;11.98;;;0.80;;
37641;SDS011;23486;51.956;5.888;2023-03-14T11:23:23;12.57;;;1.35;;
37641;SDS011;23486;51.956;5.888;2023-03-14T11:26:14;17.20;;;0.80;;
37641;SDS011;23486;51.956;5.888;2023-03-14T11:28:46;25.40;;;1.27;;
37641;SDS011;23486;51.956;5.888;2023-03-14T11:31:23;22.13;;;1.55;;
37641;SDS011;23486;51.956;5.888;2023-03-14T11:39:23;14.68;;;0.93;;
37641;SDS011;23486;51.956;5.888;2023-03-14T11:41:54;20.33;;;1.42;;
37641;SDS011;23486;51.956;5.888;2023-03-14T11:44:25;17.95;;;1.35;;
37641;SDS011;23486;51.956;5.888;2023-03-14T11:47:00;19.95;;;1.10;;
37641;SDS011;23486;51.956;5.888;2023-03-14T11:52:05;19.52;;;1.63;;
37641;SDS011;23486;51.956;5.888;2023-03-14T11:54:49;23.73;;;1.83;;
37641;SDS011;23486;51.956;5.888;2023-03-14T11:57:20;18.90;;;1.55;;
37641;SDS011;23486;51.956;5.888;2023-03-14T12:10:54;14.73;;;1.55;;
37641;SDS011;23486;51.956;5.888;2023-03-14T12:13:27;18.92;;;1.48;;
37641;SDS011;23486;51.956;5.888;2023-03-14T12:15:58;14.20;;;1.63;;
37641;SDS011;23486;51.956;5.888;2023-03-14T12:18:29;19.38;;;1.30;;
37641;SDS011;23486;51.956;5.888;2023-03-14T12:20:58;14.65;;;1.02;;
37641;SDS011;23486;51.956;5.888;2023-03-14T12:23:26;15.20;;;1.08;;
37641;SDS011;23486;51.956;5.888;2023-03-14T12:28:37;11.18;;;1.00;;
37641;SDS011;23486;51.956;5.888;2023-03-14T12:31:46;12.98;;;0.85;;
37641;SDS011;23486;51.956;5.888;2023-03-14T12:45:24;10.50;;;0.40;;
37641;SDS011;23486;51.956;5.888;2023-03-14T12:50:44;9.93;;;1.05;;
37641;SDS011;23486;51.956;5.888;2023-03-14T13:01:26;7.85;;;0.90;;
37641;SDS011;23486;51.956;5.888;2023-03-14T13:03:53;11.48;;;0.70;;
37641;SDS011;23486;51.956;5.888;2023-03-14T13:11:51;9.25;;;0.55;;
37641;SDS011;23486;51.956;5.888;2023-03-14T13:14:20;7.80;;;0.40;;
37641;SDS011;23486;51.956;5.888;2023-03-14T13:16:47;9.20;;;1.05;;
37641;SDS011;23486;51.956;5.888;2023-03-14T13:19:17;7.70;;;0.50;;
37641;SDS011;23486;51.956;5.888;2023-03-14T13:21:46;8.88;;;0.60;;
37641;SDS011;23486;51.956;5.888;2023-03-14T13:24:21;8.45;;;0.70;;
37641;SDS011;23486;51.956;5.888;2023-03-14T13:26:48;10.27;;;0.93;;
37641;SDS011;23486;51.956;5.888;2023-03-14T13:29:30;5.53;;;0.47;;
37641;SDS011;23486;51.956;5.888;2023-03-14T13:32:00;10.30;;;0.50;;
37641;SDS011;23486;51.956;5.888;2023-03-14T13:34:31;8.00;;;0.57;;
37641;SDS011;23486;51.956;5.888;2023-03-14T13:36:58;9.63;;;0.45;;
37641;SDS011;23486;51.956;5.888;2023-03-14T13:39:25;6.85;;;0.73;;
37641;SDS011;23486;51.956;5.888;2023-03-14T13:41:54;5.60;;;0.35;;
37641;SDS011;23486;51.956;5.888;2023-03-14T13:44:31;8.50;;;0.50;;
37641;SDS011;23486;51.956;5.888;2023-03-14T13:46:57;8.48;;;0.40;;
37641;SDS011;23486;51.956;5.888;2023-03-14T13:49:27;7.80;;;0.35;;
37641;SDS011;23486;51.956;5.888;2023-03-14T13:51:57;6.40;;;0.63;;
37641;SDS011;23486;51.956;5.888;2023-03-14T13:54:23;8.18;;;0.32;;
37641;SDS011;23486;51.956;5.888;2023-03-14T13:57:01;7.05;;;0.70;;
37641;SDS011;23486;51.956;5.888;2023-03-14T13:59:29;8.10;;;0.40;;
37641;SDS011;23486;51.956;5.888;2023-03-14T14:01:56;6.05;;;0.30;;
37641;SDS011;23486;51.956;5.888;2023-03-14T14:04:25;9.57;;;0.82;;
37641;SDS011;23486;51.956;5.888;2023-03-14T14:06:56;8.15;;;0.47;;
37641;SDS011;23486;51.956;5.888;2023-03-14T14:09:24;4.72;;;0.50;;
37641;SDS011;23486;51.956;5.888;2023-03-14T14:12:00;5.20;;;0.50;;
37641;SDS011;23486;51.956;5.888;2023-03-14T14:17:16;5.35;;;0.40;;
37641;SDS011;23486;51.956;5.888;2023-03-14T14:19:48;9.25;;;0.57;;
37641;SDS011;23486;51.956;5.888;2023-03-14T14:22:15;6.75;;;0.40;;
37641;SDS011;23486;51.956;5.888;2023-03-14T14:24:42;7.05;;;0.60;;
37641;SDS011;23486;51.956;5.888;2023-03-14T14:27:12;7.78;;;0.40;;
37641;SDS011;23486;51.956;5.888;2023-03-14T14:29:55;6.35;;;0.68;;
37641;SDS011;23486;51.956;5.888;2023-03-14T14:32:23;7.28;;;0.40;;
37641;SDS011;23486;51.956;5.888;2023-03-14T14:37:22;4.93;;;0.30;;
37641;SDS011;23486;51.956;5.888;2023-03-14T14:39:57;7.80;;;0.30;;
37641;SDS011;23486;51.956;5.888;2023-03-14T14:42:25;5.63;;;0.47;;
37641;SDS011;23486;51.956;5.888;2023-03-14T14:44:55;3.55;;;0.30;;
37641;SDS011;23486;51.956;5.888;2023-03-14T14:47:23;8.68;;;0.50;;
37641;SDS011;23486;51.956;5.888;2023-03-14T14:49:51;3.55;;;0.20;;
37641;SDS011;23486;51.956;5.888;2023-03-14T14:52:31;6.22;;;0.40;;
37641;SDS011;23486;51.956;5.888;2023-03-14T14:55:29;6.50;;;0.30;;
37641;SDS011;23486;51.956;5.888;2023-03-14T14:57:54;2.28;;;0.40;;
37641;SDS011;23486;51.956;5.888;2023-03-14T15:00:24;6.50;;;0.50;;
37641;SDS011;23486;51.956;5.888;2023-03-14T15:02:52;7.28;;;0.40;;
37641;SDS011;23486;51.956;5.888;2023-03-14T15:05:21;5.05;;;0.70;;
37641;SDS011;23486;51.956;5.888;2023-03-14T15:07:48;6.75;;;0.50;;
37641;SDS011;23486;51.956;5.888;2023-03-14T15:10:15;9.80;;;0.40;;
37641;SDS011;23486;51.956;5.888;2023-03-14T15:12:44;8.98;;;0.50;;
37641;SDS011;23486;51.956;5.888;2023-03-14T15:15:10;6.53;;;0.40;;
37641;SDS011;23486;51.956;5.888;2023-03-14T15:17:37;3.53;;;0.40;;
37641;SDS011;23486;51.956;5.888;2023-03-14T15:20:03;6.47;;;0.30;;
37641;SDS011;23486;51.956;5.888;2023-03-14T15:22:30;6.90;;;0.85;;
37641;SDS011;23486;51.956;5.888;2023-03-14T15:24:56;5.05;;;0.30;;
37641;SDS011;23486;51.956;5.888;2023-03-14T15:27:22;4.40;;;0.50;;
37641;SDS011;23486;51.956;5.888;2023-03-14T15:29:48;5.95;;;0.50;;
37641;SDS011;23486;51.956;5.888;2023-03-14T15:32:14;5.93;;;0.32;;
37641;SDS011;23486;51.956;5.888;2023-03-14T15:34:41;4.90;;;0.70;;
37641;SDS011;23486;51.956;5.888;2023-03-14T15:37:11;8.82;;;1.00;;
37641;SDS011;23486;51.956;5.888;2023-03-14T15:39:38;11.50;;;0.80;;
37641;SDS011;23486;51.956;5.888;2023-03-14T15:42:04;7.95;;;1.13;;
37641;SDS011;23486;51.956;5.888;2023-03-14T15:44:30;8.80;;;0.50;;
37641;SDS011;23486;51.956;5.888;2023-03-14T15:46:56;8.38;;;0.50;;
37641;SDS011;23486;51.956;5.888;2023-03-14T15:49:21;10.82;;;0.47;;
37641;SDS011;23486;51.956;5.888;2023-03-14T15:51:47;6.07;;;0.60;;
37641;SDS011;23486;51.956;5.888;2023-03-14T15:54:13;6.85;;;0.43;;
37641;SDS011;23486;51.956;5.888;2023-03-14T15:56:39;8.25;;;0.43;;
37641;SDS011;23486;51.956;5.888;2023-03-14T15:59:05;6.80;;;0.43;;
37641;SDS011;23486;51.956;5.888;2023-03-14T16:01:30;3.60;;;0.80;;
37641;SDS011;23486;51.956;5.888;2023-03-14T16:03:56;7.38;;;0.68;;